createdAt,value
2019-06-15T00:00:05.188Z,101255.27
2019-06-15T00:01:07.390Z,101259.20
2019-06-15T00:02:09.989Z,101259.73
2019-06-15T00:03:12.190Z,101262.36
2019-06-15T00:04:14.835Z,101262.23
2019-06-15T00:05:17.035Z,101261.44
2019-06-15T00:06:19.669Z,101262.75
2019-06-15T00:07:21.865Z,101264.06
2019-06-15T00:08:24.473Z,101258.42
2019-06-15T00:09:26.714Z,101255.27
2019-06-15T00:10:29.327Z,101253.04
2019-06-15T00:11:31.553Z,101245.69
2019-06-15T00:12:34.173Z,101250.54
2019-06-15T00:13:36.398Z,101241.22
2019-06-15T00:14:39.043Z,101248.83
2019-06-15T00:15:41.263Z,101247.00
2019-06-15T00:16:43.875Z,101243.45
2019-06-15T00:17:46.127Z,101247.91
2019-06-15T00:18:48.824Z,101242.14
2019-06-15T00:19:51.074Z,101238.20
2019-06-15T00:20:53.701Z,101238.20
2019-06-15T00:21:55.927Z,101237.41
2019-06-15T00:22:58.536Z,101236.89
2019-06-15T00:24:00.756Z,101232.55
2019-06-15T00:25:03.365Z,101232.03
2019-06-15T00:26:05.570Z,101234.27
2019-06-15T00:27:08.176Z,101227.30
2019-06-15T00:28:10.380Z,101232.95
2019-06-15T00:29:12.997Z,101231.64
2019-06-15T00:30:15.259Z,101226.38
2019-06-15T00:31:17.880Z,101224.67
2019-06-15T00:32:20.089Z,101227.70
2019-06-15T00:33:22.699Z,101223.76
2019-06-15T00:34:24.913Z,101220.73
2019-06-15T00:35:27.586Z,101211.94
2019-06-15T00:36:29.790Z,101213.25
2019-06-15T00:37:32.381Z,101215.88
2019-06-15T00:38:34.636Z,101209.71
2019-06-15T00:39:37.291Z,101205.77
2019-06-15T00:40:39.596Z,101205.38
2019-06-15T00:41:42.137Z,101208.00
2019-06-15T00:42:44.370Z,101207.61
2019-06-15T00:43:46.962Z,101203.67
2019-06-15T00:44:49.174Z,101203.14
2019-06-15T00:45:51.777Z,101201.44
2019-06-15T00:46:53.991Z,101199.73
2019-06-15T00:47:56.634Z,101201.05
2019-06-15T00:48:58.829Z,101191.85
2019-06-15T00:50:01.438Z,101186.60
2019-06-15T00:51:03.651Z,101194.48
2019-06-15T00:52:06.247Z,101187.13
2019-06-15T00:53:08.479Z,101175.70
2019-06-15T00:54:11.081Z,101175.70
2019-06-15T00:55:13.254Z,101174.39
2019-06-15T00:56:15.860Z,101169.02
2019-06-15T00:57:18.181Z,101169.92
2019-06-15T00:58:20.776Z,101169.53
2019-06-15T00:59:22.985Z,101169.92
2019-06-15T01:00:25.590Z,101169.92
2019-06-15T01:01:27.813Z,101169.92
2019-06-15T01:02:30.429Z,101162.05
2019-06-15T01:03:32.637Z,101162.45
2019-06-15T01:04:35.263Z,101159.42
2019-06-15T01:05:39.082Z,101154.57
2019-06-15T01:06:41.704Z,101155.09
2019-06-15T01:07:43.911Z,101152.86
2019-06-15T01:08:46.535Z,101158.11
2019-06-15T01:09:48.739Z,101164.28
2019-06-15T01:10:51.358Z,101161.13
2019-06-15T01:11:53.580Z,101155.87
2019-06-15T01:12:56.202Z,101163.36
2019-06-15T01:13:58.480Z,101158.51
2019-06-15T01:15:01.104Z,101152.73
2019-06-15T01:16:04.530Z,101150.63
2019-06-15T01:17:07.082Z,101144.06
2019-06-15T01:18:09.297Z,101144.86
2019-06-15T01:19:11.915Z,101143.55
2019-06-15T01:20:14.159Z,101149.71
2019-06-15T01:21:16.778Z,101148.80
2019-06-15T01:22:18.982Z,101148.80
2019-06-15T01:23:21.576Z,101146.17
2019-06-15T01:24:23.823Z,101153.26
2019-06-15T01:25:26.429Z,101144.47
2019-06-15T01:26:28.630Z,101147.48
2019-06-15T01:27:31.239Z,101151.94
2019-06-15T01:28:33.458Z,101147.48
2019-06-15T01:29:36.072Z,101136.19
2019-06-15T01:30:38.297Z,101136.19
2019-06-15T01:31:41.025Z,101131.33
2019-06-15T01:32:43.234Z,101133.05
2019-06-15T01:33:45.863Z,101123.33
2019-06-15T01:34:48.083Z,101121.23
2019-06-15T01:35:50.786Z,101125.56
2019-06-15T01:36:52.985Z,101124.25
2019-06-15T01:37:55.586Z,101117.69
2019-06-15T01:38:59.392Z,101120.31
2019-06-15T01:40:02.032Z,101114.14
2019-06-15T01:41:05.228Z,101111.12
2019-06-15T01:42:07.828Z,101105.88
2019-06-15T01:43:10.041Z,101107.58
2019-06-15T01:44:12.674Z,101107.58
2019-06-15T01:45:14.916Z,101111.12
2019-06-15T01:46:17.516Z,101111.91
2019-06-15T01:47:19.729Z,101113.34
2019-06-15T01:48:22.349Z,101114.54
2019-06-15T01:49:24.584Z,101119.39
2019-06-15T01:50:27.194Z,101116.77
2019-06-15T01:51:29.406Z,101115.06
2019-06-15T01:52:32.022Z,101114.14
2019-06-15T01:53:34.226Z,101109.29
2019-06-15T01:54:36.829Z,101108.49
2019-06-15T01:55:39.084Z,101108.49
2019-06-15T01:56:42.874Z,101112.44
2019-06-15T01:57:45.094Z,101099.70
2019-06-15T01:58:47.692Z,101102.33
2019-06-15T01:59:49.914Z,101101.41
2019-06-15T02:00:52.550Z,101099.30
2019-06-15T02:01:54.773Z,101098.78
2019-06-15T02:02:57.379Z,101090.39
2019-06-15T02:03:59.593Z,101096.16
2019-06-15T02:05:02.204Z,101091.70
2019-06-15T02:06:04.453Z,101091.83
2019-06-15T02:07:07.060Z,101085.14
2019-06-15T02:08:09.283Z,101080.01
2019-06-15T02:09:11.883Z,101078.57
2019-06-15T02:10:15.907Z,101075.55
2019-06-15T02:11:18.534Z,101074.23
2019-06-15T02:12:20.776Z,101077.26
2019-06-15T02:13:23.478Z,101077.26
2019-06-15T02:14:25.688Z,101077.78
2019-06-15T02:15:28.291Z,101080.80
2019-06-15T02:16:30.532Z,101080.41
2019-06-15T02:17:33.143Z,101080.41
2019-06-15T02:18:35.348Z,101076.86
2019-06-15T02:19:37.959Z,101075.55
2019-06-15T02:20:40.166Z,101074.23
2019-06-15T02:21:42.794Z,101064.53
2019-06-15T02:22:45.015Z,101056.25
2019-06-15T02:23:47.621Z,101060.59
2019-06-15T02:24:49.841Z,101058.88
2019-06-15T02:25:52.456Z,101062.81
2019-06-15T02:26:54.696Z,101059.28
2019-06-15T02:27:58.488Z,101056.25
2019-06-15T02:29:00.692Z,101052.31
2019-06-15T02:30:03.305Z,101049.17
2019-06-15T02:31:05.535Z,101051.00
2019-06-15T02:32:08.169Z,101054.02
2019-06-15T02:33:10.377Z,101059.28
2019-06-15T02:34:12.990Z,101060.19
2019-06-15T02:35:15.208Z,101059.28
2019-06-15T02:36:17.807Z,101063.73
2019-06-15T02:37:20.022Z,101061.11
2019-06-15T02:38:22.646Z,101053.63
2019-06-15T02:39:24.843Z,101060.59
2019-06-15T02:40:27.462Z,101055.34
2019-06-15T02:41:29.656Z,101052.31
2019-06-15T02:42:32.296Z,101057.05
2019-06-15T02:43:34.513Z,101058.88
2019-06-15T02:44:38.153Z,101055.73
2019-06-15T02:45:40.365Z,101057.05
2019-06-15T02:46:42.964Z,101050.09
2019-06-15T02:47:45.204Z,101048.77
2019-06-15T02:48:48.828Z,101044.31
2019-06-15T02:49:51.038Z,101037.75
2019-06-15T02:50:53.631Z,101042.21
2019-06-15T02:51:55.847Z,101039.98
2019-06-15T02:52:58.461Z,101040.90
2019-06-15T02:54:00.668Z,101040.37
2019-06-15T02:55:03.326Z,101032.50
2019-06-15T02:56:05.603Z,101032.90
2019-06-15T02:57:08.199Z,101033.81
2019-06-15T02:58:10.407Z,101032.90
2019-06-15T02:59:13.023Z,101028.96
2019-06-15T03:00:15.255Z,101032.11
2019-06-15T03:01:17.859Z,101030.27
2019-06-15T03:02:20.066Z,101027.77
2019-06-15T03:03:22.726Z,101028.69
2019-06-15T03:04:24.931Z,101026.98
2019-06-15T03:05:27.549Z,101030.52
2019-06-15T03:06:29.759Z,101023.44
2019-06-15T03:07:32.369Z,101026.45
2019-06-15T03:08:34.833Z,101037.88
2019-06-15T03:09:37.422Z,101027.77
2019-06-15T03:10:39.655Z,101029.08
2019-06-15T03:11:42.259Z,101029.48
2019-06-15T03:12:44.471Z,101025.14
2019-06-15T03:13:47.081Z,101023.31
2019-06-15T03:14:49.329Z,101027.25
2019-06-15T03:15:51.958Z,101033.42
2019-06-15T03:16:54.175Z,101020.69
2019-06-15T03:17:56.785Z,101025.14
2019-06-15T03:18:58.979Z,101025.55
2019-06-15T03:20:01.611Z,101025.55
2019-06-15T03:21:03.838Z,101024.23
2019-06-15T03:22:06.654Z,101022.40
2019-06-15T03:23:08.961Z,101022.00
2019-06-15T03:24:11.559Z,101019.77
2019-06-15T03:25:15.583Z,101025.02
2019-06-15T03:26:18.220Z,101018.98
2019-06-15T03:27:20.437Z,101017.14
2019-06-15T03:28:23.055Z,101020.29
2019-06-15T03:29:25.277Z,101025.94
2019-06-15T03:30:27.873Z,101025.02
2019-06-15T03:31:30.104Z,101017.14
2019-06-15T03:32:32.712Z,101018.06
2019-06-15T03:33:34.909Z,101013.20
2019-06-15T03:34:37.550Z,101011.89
2019-06-15T03:35:39.748Z,101011.89
2019-06-15T03:36:42.365Z,101005.33
2019-06-15T03:37:44.575Z,101015.44
2019-06-15T03:38:48.361Z,101014.13
2019-06-15T03:39:50.579Z,101007.95
2019-06-15T03:40:53.194Z,101011.89
2019-06-15T03:41:55.416Z,101007.00
2019-06-15T03:42:58.011Z,101012.81
2019-06-15T03:44:00.215Z,101006.64
2019-06-15T03:45:02.851Z,101008.88
2019-06-15T03:46:05.073Z,101010.58
2019-06-15T03:47:08.875Z,101015.44
2019-06-15T03:48:11.210Z,101014.13
2019-06-15T03:49:13.798Z,101013.20
2019-06-15T03:50:16.022Z,101010.94
2019-06-15T03:51:18.647Z,101019.38
2019-06-15T03:52:20.855Z,101009.63
2019-06-15T03:53:23.465Z,101012.81
2019-06-15T03:54:25.675Z,101010.94
2019-06-15T03:55:28.302Z,101015.67
2019-06-15T03:56:30.550Z,101013.20
2019-06-15T03:57:33.152Z,101011.34
2019-06-15T03:58:35.365Z,101012.81
2019-06-15T03:59:37.978Z,101010.94
2019-06-15T04:00:40.235Z,101018.45
2019-06-15T04:01:42.825Z,101017.91
2019-06-15T04:02:45.069Z,101016.59
2019-06-15T04:03:47.686Z,101014.88
2019-06-15T04:04:52.320Z,101012.66
2019-06-15T04:05:54.196Z,101021.45
2019-06-15T04:06:56.439Z,101018.82
2019-06-15T04:07:59.061Z,101008.32
2019-06-15T04:09:01.282Z,101007.00
2019-06-15T04:10:03.896Z,101009.63
2019-06-15T04:11:06.124Z,101005.17
2019-06-15T04:12:08.787Z,101007.00
2019-06-15T04:13:11.000Z,101001.23
2019-06-15T04:14:13.601Z,100998.61
2019-06-15T04:15:15.812Z,100998.22
2019-06-15T04:16:18.449Z,100999.92
2019-06-15T04:17:20.794Z,100998.61
2019-06-15T04:18:23.367Z,101002.55
2019-06-15T04:19:25.584Z,100999.92
2019-06-15T04:20:28.174Z,100994.28
2019-06-15T04:21:30.420Z,100998.61
2019-06-15T04:22:33.027Z,100994.28
2019-06-15T04:23:35.232Z,100989.42
2019-06-15T04:24:37.860Z,100987.72
2019-06-15T04:25:40.090Z,100984.17
2019-06-15T04:26:42.694Z,100986.95
2019-06-15T04:27:44.911Z,100982.86
2019-06-15T04:28:49.467Z,100989.02
2019-06-15T04:29:51.375Z,100989.02
2019-06-15T04:30:53.984Z,100988.27
2019-06-15T04:31:56.198Z,100987.72
2019-06-15T04:32:58.817Z,100981.95
2019-06-15T04:34:01.031Z,100977.61
2019-06-15T04:35:03.638Z,100970.13
2019-06-15T04:36:05.849Z,100968.81
2019-06-15T04:37:08.466Z,100974.98
2019-06-15T04:38:10.742Z,100967.11
2019-06-15T04:39:13.328Z,100971.05
2019-06-15T04:40:15.543Z,100974.59
2019-06-15T04:41:18.129Z,100971.05
2019-06-15T04:42:20.377Z,100974.98
2019-06-15T04:43:22.984Z,100982.86
2019-06-15T04:44:25.184Z,100985.48
2019-06-15T04:45:27.782Z,100984.17
2019-06-15T04:46:32.069Z,100980.39
2019-06-15T04:47:34.250Z,100979.08
2019-06-15T04:48:36.449Z,100974.73
2019-06-15T04:49:39.040Z,100974.73
2019-06-15T04:50:41.248Z,100964.64
2019-06-15T04:51:43.879Z,100957.67
2019-06-15T04:52:46.078Z,100959.38
2019-06-15T04:53:48.666Z,100964.23
2019-06-15T04:54:50.871Z,100962.02
2019-06-15T04:55:53.486Z,100969.22
2019-06-15T04:56:55.695Z,100973.95
2019-06-15T04:57:58.283Z,100972.63
2019-06-15T04:59:00.524Z,100970.80
2019-06-15T05:00:03.113Z,100974.73
2019-06-15T05:01:05.292Z,100974.86
2019-06-15T05:02:07.894Z,100970.01
2019-06-15T05:03:10.342Z,100973.95
2019-06-15T05:04:12.955Z,100970.92
2019-06-15T05:05:15.156Z,100974.47
2019-06-15T05:06:17.748Z,100969.61
2019-06-15T05:07:19.999Z,100966.19
2019-06-15T05:08:22.558Z,100964.36
2019-06-15T05:09:24.770Z,100960.14
2019-06-15T05:10:27.368Z,100955.84
2019-06-15T05:11:29.585Z,100953.22
2019-06-15T05:12:32.219Z,100950.20
2019-06-15T05:13:34.443Z,100944.43
2019-06-15T05:14:37.056Z,100943.00
2019-06-15T05:15:39.300Z,100944.31
2019-06-15T05:16:41.908Z,100943.27
2019-06-15T05:17:46.215Z,100948.13
2019-06-15T05:18:48.368Z,100945.63
2019-06-15T05:19:50.648Z,100944.95
2019-06-15T05:20:53.243Z,100944.67
2019-06-15T05:21:55.457Z,100943.08
2019-06-15T05:22:58.034Z,100940.06
2019-06-15T05:24:00.187Z,100934.96
2019-06-15T05:25:02.810Z,100939.81
2019-06-15T05:26:05.026Z,100937.70
2019-06-15T05:27:07.609Z,100939.42
2019-06-15T05:28:09.815Z,100931.54
2019-06-15T05:29:12.415Z,100938.11
2019-06-15T05:30:14.614Z,100936.80
2019-06-15T05:31:17.211Z,100939.02
2019-06-15T05:32:19.423Z,100944.27
2019-06-15T05:33:22.015Z,100941.64
2019-06-15T05:34:24.233Z,100944.67
2019-06-15T05:35:26.869Z,100944.67
2019-06-15T05:36:29.089Z,100943.88
2019-06-15T05:37:31.686Z,100946.10
2019-06-15T05:38:33.887Z,100945.98
2019-06-15T05:39:36.477Z,100945.06
2019-06-15T05:40:38.723Z,100944.95
2019-06-15T05:41:41.328Z,100951.11
2019-06-15T05:42:43.532Z,100949.64
2019-06-15T05:43:46.137Z,100940.45
2019-06-15T05:44:48.334Z,100942.04
2019-06-15T05:45:50.986Z,100943.36
2019-06-15T05:46:53.197Z,100941.13
2019-06-15T05:47:55.786Z,100941.13
2019-06-15T05:48:57.995Z,100937.07
2019-06-15T05:50:00.585Z,100937.98
2019-06-15T05:51:02.825Z,100940.21
2019-06-15T05:52:05.421Z,100942.04
2019-06-15T05:53:07.625Z,100944.67
2019-06-15T05:54:10.213Z,100949.92
2019-06-15T05:55:12.425Z,100951.35
2019-06-15T05:56:15.089Z,100958.19
2019-06-15T05:57:21.526Z,100966.98
2019-06-15T05:58:21.701Z,100969.22
2019-06-15T05:59:23.898Z,100967.50
2019-06-15T06:00:26.530Z,100964.36
2019-06-15T06:01:28.729Z,100962.13
2019-06-15T06:02:31.371Z,100963.56
2019-06-15T06:03:33.575Z,100960.82
2019-06-15T06:04:36.509Z,100956.76
2019-06-15T06:05:38.742Z,100960.70
2019-06-15T06:06:41.333Z,100967.78
2019-06-15T06:07:43.538Z,100966.71
2019-06-15T06:08:46.143Z,100969.09
2019-06-15T06:09:48.329Z,100965.95
2019-06-15T06:10:50.937Z,100966.86
2019-06-15T06:11:53.164Z,100969.09
2019-06-15T06:12:55.788Z,100968.30
2019-06-15T06:13:58.026Z,100967.11
2019-06-15T06:15:00.605Z,100967.11
2019-06-15T06:16:02.831Z,100964.64
2019-06-15T06:17:05.412Z,100966.31
2019-06-15T06:18:07.651Z,100966.07
2019-06-15T06:19:10.246Z,100961.73
2019-06-15T06:20:12.465Z,100960.30
2019-06-15T06:21:15.057Z,100956.76
2019-06-15T06:22:17.247Z,100961.61
2019-06-15T06:23:19.887Z,100963.45
2019-06-15T06:24:22.089Z,100958.83
2019-06-15T06:25:24.800Z,100963.56
2019-06-15T06:26:26.987Z,100962.53
2019-06-15T06:27:36.422Z,100962.41
2019-06-15T06:28:33.469Z,100955.05
2019-06-15T06:29:36.063Z,100952.42
2019-06-15T06:30:38.282Z,100956.48
2019-06-15T06:31:40.869Z,100958.71
2019-06-15T06:32:43.095Z,100955.81
2019-06-15T06:33:45.680Z,100946.63
2019-06-15T06:34:47.894Z,100941.92
2019-06-15T06:35:50.505Z,100940.21
2019-06-15T06:36:52.728Z,100928.52
2019-06-15T06:37:55.331Z,100924.58
2019-06-15T06:38:57.613Z,100918.02
2019-06-15T06:40:00.208Z,100918.13
2019-06-15T06:41:02.474Z,100919.05
2019-06-15T06:42:05.083Z,100922.59
2019-06-15T06:43:07.287Z,100917.34
2019-06-15T06:44:09.897Z,100917.34
2019-06-15T06:45:12.104Z,100908.15
2019-06-15T06:46:14.711Z,100900.79
2019-06-15T06:47:16.917Z,100890.69
2019-06-15T06:48:19.540Z,100889.89
2019-06-15T06:49:21.766Z,100884.13
2019-06-15T06:50:24.363Z,100885.03
2019-06-15T06:51:26.587Z,100870.48
2019-06-15T06:52:29.157Z,100869.56
2019-06-15T06:53:31.376Z,100873.10
2019-06-15T06:54:34.020Z,100871.79
2019-06-15T06:55:36.192Z,100867.84
2019-06-15T06:56:38.789Z,100869.68
2019-06-15T06:57:51.910Z,100863.39
2019-06-15T06:58:45.276Z,100865.62
2019-06-15T06:59:47.494Z,100867.33
2019-06-15T07:00:50.087Z,100874.02
2019-06-15T07:01:52.343Z,100880.18
2019-06-15T07:02:54.933Z,100877.16
2019-06-15T07:03:57.174Z,100877.55
2019-06-15T07:04:59.757Z,100878.87
2019-06-15T07:06:01.975Z,100888.45
2019-06-15T07:07:04.555Z,100881.50
2019-06-15T07:08:06.782Z,100883.72
2019-06-15T07:09:09.386Z,100871.39
2019-06-15T07:10:11.590Z,100868.36
2019-06-15T07:11:14.193Z,100861.41
2019-06-15T07:12:16.495Z,100851.81
2019-06-15T07:13:19.120Z,100842.11
2019-06-15T07:14:21.324Z,100844.73
2019-06-15T07:15:23.927Z,100839.48
2019-06-15T07:16:26.138Z,100837.77
2019-06-15T07:17:28.743Z,100838.57
2019-06-15T07:18:30.986Z,100840.28
2019-06-15T07:19:33.590Z,100829.66
2019-06-15T07:20:35.821Z,100831.48
2019-06-15T07:21:38.398Z,100839.88
2019-06-15T07:22:40.595Z,100833.60
2019-06-15T07:23:43.285Z,100841.48
2019-06-15T07:24:45.473Z,100845.41
2019-06-15T07:25:48.073Z,100848.05
2019-06-15T07:26:50.278Z,100856.83
2019-06-15T07:28:07.153Z,100859.97
2019-06-15T07:28:56.776Z,100866.02
2019-06-15T07:29:59.380Z,100883.61
2019-06-15T07:31:01.579Z,100900.67
2019-06-15T07:32:04.181Z,100906.59
2019-06-15T07:33:06.422Z,100920.00
2019-06-15T07:34:09.149Z,100915.39
2019-06-15T07:35:11.342Z,100895.31
2019-06-15T07:36:13.946Z,100903.86
2019-06-15T07:37:16.156Z,100907.52
2019-06-15T07:38:18.784Z,100885.08
2019-06-15T07:39:21.010Z,100870.75
2019-06-15T07:40:23.603Z,100865.11
2019-06-15T07:41:25.804Z,100867.73
2019-06-15T07:42:28.389Z,100856.59
2019-06-15T07:43:30.616Z,100841.99
2019-06-15T07:44:33.219Z,100835.94
2019-06-15T07:45:35.438Z,100825.16
2019-06-15T07:46:38.043Z,100826.36
2019-06-15T07:47:40.242Z,100822.94
2019-06-15T07:48:42.858Z,100817.96
2019-06-15T07:49:45.068Z,100817.05
2019-06-15T07:50:47.662Z,100821.50
2019-06-15T07:51:49.866Z,100812.83
2019-06-15T07:52:52.460Z,100821.22
2019-06-15T07:53:54.705Z,100816.77
2019-06-15T07:54:57.290Z,100817.84
2019-06-15T07:55:59.492Z,100820.88
2019-06-15T07:57:02.098Z,100812.72
2019-06-15T07:58:04.350Z,100818.12
2019-06-15T07:59:06.929Z,100820.09
2019-06-15T08:00:09.130Z,100820.09
2019-06-15T08:01:11.718Z,100812.21
2019-06-15T08:02:14.917Z,100815.12
2019-06-15T08:03:17.592Z,100812.89
2019-06-15T08:04:19.788Z,100812.61
2019-06-15T08:05:22.402Z,100815.75
2019-06-15T08:06:24.608Z,100811.81
2019-06-15T08:07:27.213Z,100808.14
2019-06-15T08:08:29.443Z,100801.93
2019-06-15T08:09:32.060Z,100797.70
2019-06-15T08:10:34.290Z,100800.33
2019-06-15T08:11:36.881Z,100791.31
2019-06-15T08:12:39.077Z,100782.52
2019-06-15T08:13:41.658Z,100781.72
2019-06-15T08:14:43.886Z,100775.55
2019-06-15T08:15:46.493Z,100772.81
2019-06-15T08:16:48.682Z,100771.50
2019-06-15T08:17:51.269Z,100768.77
2019-06-15T08:18:53.501Z,100772.83
2019-06-15T08:19:56.031Z,100765.47
2019-06-15T08:20:58.242Z,100756.83
2019-06-15T08:22:00.879Z,100757.86
2019-06-15T08:23:03.087Z,100744.62
2019-06-15T08:24:05.731Z,100749.88
2019-06-15T08:25:07.942Z,100737.14
2019-06-15T08:26:10.549Z,100737.91
2019-06-15T08:27:12.779Z,100730.31
2019-06-15T08:28:15.374Z,100737.91
2019-06-15T08:29:17.580Z,100730.98
2019-06-15T08:30:20.211Z,100723.10
2019-06-15T08:31:22.425Z,100715.59
2019-06-15T08:32:25.005Z,100714.43
2019-06-15T08:33:27.216Z,100715.86
2019-06-15T08:34:30.052Z,100716.66
2019-06-15T08:35:32.258Z,100716.66
2019-06-15T08:36:34.857Z,100722.42
2019-06-15T08:37:37.067Z,100725.95
2019-06-15T08:38:39.664Z,100730.69
2019-06-15T08:39:41.885Z,100733.31
2019-06-15T08:40:44.486Z,100746.05
2019-06-15T08:41:46.694Z,100749.58
2019-06-15T08:42:49.308Z,100764.02
2019-06-15T08:43:51.537Z,100774.53
2019-06-15T08:44:54.135Z,100789.08
2019-06-15T08:45:56.514Z,100796.84
2019-06-15T08:46:59.550Z,100806.55
2019-06-15T08:48:01.813Z,100813.11
2019-06-15T08:49:04.407Z,100805.63
2019-06-15T08:50:07.854Z,100791.99
2019-06-15T08:51:11.431Z,100804.72
2019-06-15T08:52:13.555Z,100795.13
2019-06-15T08:53:16.144Z,100810.88
2019-06-15T08:54:18.369Z,100818.36
2019-06-15T08:55:21.028Z,100824.92
2019-06-15T08:56:23.273Z,100822.30
2019-06-15T08:57:25.876Z,100817.84
2019-06-15T08:58:28.081Z,100815.73
2019-06-15T08:59:30.684Z,100813.91
2019-06-15T09:00:32.897Z,100804.84
2019-06-15T09:01:35.525Z,100795.53
2019-06-15T09:02:37.817Z,100796.05
2019-06-15T09:03:40.440Z,100788.05
2019-06-15T09:04:42.653Z,100785.95
2019-06-15T09:05:45.247Z,100781.89
2019-06-15T09:06:47.452Z,100783.84
2019-06-15T09:07:50.059Z,100787.27
2019-06-15T09:08:52.265Z,100785.45
2019-06-15T09:09:54.906Z,100781.22
2019-06-15T09:10:57.120Z,100773.90
2019-06-15T09:11:59.704Z,100769.16
2019-06-15T09:13:01.907Z,100771.39
2019-06-15T09:14:04.511Z,100775.61
2019-06-15T09:15:06.751Z,100776.77
2019-06-15T09:16:09.355Z,100771.52
2019-06-15T09:17:11.570Z,100768.09
2019-06-15T09:18:14.155Z,100768.09
2019-06-15T09:19:16.367Z,100764.04
2019-06-15T09:20:18.997Z,100775.97
2019-06-15T09:21:21.193Z,100771.00
2019-06-15T09:22:23.789Z,100773.23
2019-06-15T09:23:26.002Z,100769.41
2019-06-15T09:24:28.607Z,100770.47
2019-06-15T09:25:30.845Z,100755.52
2019-06-15T09:26:33.447Z,100755.52
2019-06-15T09:27:35.649Z,100754.32
2019-06-15T09:28:38.260Z,100752.50
2019-06-15T09:29:40.499Z,100745.41
2019-06-15T09:30:43.144Z,100738.85
2019-06-15T09:31:46.445Z,100731.11
2019-06-15T09:32:49.129Z,100734.77
2019-06-15T09:33:51.332Z,100732.29
2019-06-15T09:34:53.939Z,100726.49
2019-06-15T09:35:56.175Z,100733.34
2019-06-15T09:36:58.792Z,100726.66
2019-06-15T09:38:01.016Z,100731.28
2019-06-15T09:39:03.702Z,100729.80
2019-06-15T09:40:05.909Z,100735.95
2019-06-15T09:41:08.655Z,100736.58
2019-06-15T09:42:10.868Z,100731.32
2019-06-15T09:43:13.464Z,100730.01
2019-06-15T09:44:15.671Z,100732.75
2019-06-15T09:45:18.330Z,100736.97
2019-06-15T09:46:20.566Z,100730.92
2019-06-15T09:47:23.167Z,100736.58
2019-06-15T09:48:25.399Z,100737.09
2019-06-15T09:49:28.002Z,100726.70
2019-06-15T09:50:30.192Z,100722.48
2019-06-15T09:51:32.812Z,100719.83
2019-06-15T09:52:35.067Z,100713.26
2019-06-15T09:53:40.026Z,100713.28
2019-06-15T09:54:42.317Z,100711.69
2019-06-15T09:55:44.908Z,100707.09
2019-06-15T09:56:47.131Z,100704.47
2019-06-15T09:57:49.737Z,100697.73
2019-06-15T09:58:51.948Z,100688.94
2019-06-15T09:59:54.540Z,100687.11
2019-06-15T10:00:56.763Z,100684.60
2019-06-15T10:01:59.390Z,100684.60
2019-06-15T10:03:01.585Z,100687.11
2019-06-15T10:04:04.178Z,100685.80
2019-06-15T10:05:06.389Z,100692.77
2019-06-15T10:06:11.676Z,100694.37
2019-06-15T10:07:12.935Z,100698.45
2019-06-15T10:08:15.567Z,100699.81
2019-06-15T10:09:17.779Z,100706.89
2019-06-15T10:10:20.382Z,100705.81
2019-06-15T10:11:22.588Z,100709.46
2019-06-15T10:12:25.208Z,100728.13
2019-06-15T10:13:27.410Z,100728.02
2019-06-15T10:14:30.021Z,100732.46
2019-06-15T10:15:32.242Z,100746.91
2019-06-15T10:16:34.834Z,100747.81
2019-06-15T10:17:37.075Z,100758.32
2019-06-15T10:18:39.676Z,100762.26
2019-06-15T10:19:41.878Z,100768.99
2019-06-15T10:20:44.461Z,100774.53
2019-06-15T10:21:46.676Z,100773.84
2019-06-15T10:22:49.300Z,100776.19
2019-06-15T10:23:51.512Z,100769.34
2019-06-15T10:24:54.142Z,100777.33
2019-06-15T10:25:56.364Z,100784.81
2019-06-15T10:26:58.967Z,100784.41
2019-06-15T10:28:01.210Z,100783.89
2019-06-15T10:29:03.833Z,100786.41
2019-06-15T10:30:06.044Z,100781.67
2019-06-15T10:31:08.643Z,100782.06
2019-06-15T10:32:10.851Z,100777.33
2019-06-15T10:33:13.476Z,100768.02
2019-06-15T10:34:15.747Z,100773.79
2019-06-15T10:35:18.364Z,100778.64
2019-06-15T10:36:20.610Z,100767.62
2019-06-15T10:37:23.212Z,100783.38
2019-06-15T10:38:25.461Z,100786.00
2019-06-15T10:39:28.061Z,100789.94
2019-06-15T10:40:30.275Z,100797.31
2019-06-15T10:41:32.864Z,100792.86
2019-06-15T10:42:35.078Z,100785.89
2019-06-15T10:43:37.687Z,100783.78
2019-06-15T10:44:39.916Z,100776.30
2019-06-15T10:45:42.522Z,100776.30
2019-06-15T10:46:44.747Z,100789.03
2019-06-15T10:47:47.348Z,100789.03
2019-06-15T10:48:49.595Z,100783.27
2019-06-15T10:49:52.196Z,100776.70
2019-06-15T10:50:54.430Z,100783.27
2019-06-15T10:51:57.043Z,100777.90
2019-06-15T10:52:59.262Z,100773.05
2019-06-15T10:54:01.877Z,100770.42
2019-06-15T10:55:04.085Z,100769.51
2019-06-15T10:56:06.686Z,100766.88
2019-06-15T10:57:08.912Z,100762.43
2019-06-15T10:58:11.532Z,100758.38
2019-06-15T10:59:13.782Z,100753.52
2019-06-15T11:00:16.355Z,100760.20
2019-06-15T11:01:18.557Z,100747.59
2019-06-15T11:02:21.162Z,100747.08
2019-06-15T11:03:23.359Z,100740.52
2019-06-15T11:04:25.971Z,100731.72
2019-06-15T11:05:28.195Z,100722.53
2019-06-15T11:06:30.805Z,100706.38
2019-06-15T11:07:33.052Z,100695.08
2019-06-15T11:08:35.659Z,100693.36
2019-06-15T11:09:37.893Z,100692.56
2019-06-15T11:10:40.492Z,100701.75
2019-06-15T11:11:42.738Z,100712.77
2019-06-15T11:12:46.923Z,100716.59
2019-06-15T11:13:49.371Z,100726.70
2019-06-15T11:14:51.995Z,100726.81
2019-06-15T11:15:54.219Z,100725.39
2019-06-15T11:16:56.815Z,100720.13
2019-06-15T11:17:59.034Z,100718.02
2019-06-15T11:19:01.667Z,100717.11
2019-06-15T11:20:03.908Z,100716.71
2019-06-15T11:21:06.582Z,100704.89
2019-06-15T11:22:08.805Z,100700.16
2019-06-15T11:23:11.407Z,100700.55
2019-06-15T11:24:14.499Z,100700.16
2019-06-15T11:25:18.011Z,100702.78
2019-06-15T11:26:21.171Z,100700.05
2019-06-15T11:27:24.643Z,100703.06
2019-06-15T11:28:26.862Z,100711.45
2019-06-15T11:29:29.448Z,100711.06
2019-06-15T11:30:31.669Z,100710.15
2019-06-15T11:31:34.316Z,100721.96
2019-06-15T11:32:36.497Z,100731.16
2019-06-15T11:33:39.102Z,100739.14
2019-06-15T11:34:41.313Z,100745.70
2019-06-15T11:35:43.922Z,100754.50
2019-06-15T11:36:46.762Z,100765.40
2019-06-15T11:37:49.295Z,100778.92
2019-06-15T11:38:51.512Z,100790.34
2019-06-15T11:39:54.124Z,100804.78
2019-06-15T11:40:56.360Z,100812.66
2019-06-15T11:41:58.975Z,100813.17
2019-06-15T11:43:01.166Z,100809.23
2019-06-15T11:44:03.908Z,100806.22
2019-06-15T11:45:06.117Z,100812.38
2019-06-15T11:46:08.731Z,100813.69
2019-06-15T11:47:10.937Z,100811.06
2019-06-15T11:48:13.552Z,100815.41
2019-06-15T11:49:15.765Z,100812.38
2019-06-15T11:50:18.356Z,100813.69
2019-06-15T11:51:20.562Z,100817.12
2019-06-15T11:52:23.168Z,100823.80